Time;durP1;ratioP1;P1;durP2;ratioP2;P2;SDS_P1;SDS_P2;PMS_P1;PMS_P2;Temp;Humidity;BMP_temperature;BMP_pressure;BME280_temperature;BME280_humidity;BME280_pressure;Samples;Min_cycle;Max_cycle;Signal;HPM_P1;HPM_P2
2022/11/23 00:00:36;;;;;;;3.53;2.10;;;21.00;57.00;;;;;;5032512;28;20472;-66
2022/11/23 00:03:02;;;;;;;3.10;1.88;;;20.90;57.00;;;;;;5031356;28;20075;-65
2022/11/23 00:05:29;;;;;;;3.13;1.75;;;20.90;57.00;;;;;;5026880;28;20055;-66
2022/11/23 00:07:54;;;;;;;2.92;1.80;;;20.90;57.00;;;;;;5025737;28;20092;-66
2022/11/23 00:10:20;;;;;;;3.28;1.70;;;20.90;57.00;;;;;;5037041;28;20451;-65
2022/11/23 00:12:46;;;;;;;3.92;2.03;;;20.90;57.00;;;;;;5025447;28;20083;-66
2022/11/23 00:15:13;;;;;;;3.10;1.77;;;20.90;57.00;;;;;;5038291;28;20036;-64
2022/11/23 00:17:39;;;;;;;3.42;1.95;;;20.90;57.00;;;;;;5035713;28;20026;-66
2022/11/23 00:20:06;;;;;;;3.38;2.00;;;20.90;57.00;;;;;;5020163;28;20440;-65
2022/11/23 00:22:32;;;;;;;3.78;2.10;;;20.90;57.00;;;;;;5034754;28;20116;-66
2022/11/23 00:24:58;;;;;;;3.72;2.00;;;20.90;57.00;;;;;;5024232;28;20033;-65
2022/11/23 00:27:24;;;;;;;3.38;1.92;;;20.90;57.00;;;;;;5026401;28;20034;-65
2022/11/23 00:29:49;;;;;;;3.15;1.77;;;20.90;57.00;;;;;;5024023;28;20040;-64
2022/11/23 00:32:15;;;;;;;3.35;2.00;;;20.90;57.00;;;;;;5026992;28;20445;-65
2022/11/23 00:34:41;;;;;;;2.92;1.73;;;20.80;57.00;;;;;;5037340;28;20029;-66
2022/11/23 00:37:06;;;;;;;3.20;1.92;;;20.80;57.00;;;;;;5030667;28;20041;-66
2022/11/23 00:39:32;;;;;;;3.15;1.83;;;20.80;57.00;;;;;;5027766;28;20037;-65
2022/11/23 00:41:58;;;;;;;2.72;1.70;;;20.80;57.00;;;;;;5034402;28;20099;-65
2022/11/23 00:44:23;;;;;;;3.00;1.80;;;20.80;57.00;;;;;;5025444;28;20030;-65
2022/11/23 00:46:49;;;;;;;3.50;1.92;;;20.80;57.00;;;;;;5022256;28;20068;-65
2022/11/23 00:49:15;;;;;;;3.50;1.92;;;20.80;57.00;;;;;;5021423;28;20028;-65
2022/11/23 00:51:40;;;;;;;3.33;1.80;;;20.80;57.10;;;;;;5034810;28;20102;-65
2022/11/23 00:54:06;;;;;;;3.17;1.92;;;20.80;57.00;;;;;;5034890;28;20044;-66
2022/11/23 00:56:34;;;;;;;3.10;1.83;;;20.80;57.00;;;;;;5028608;28;20385;-65
2022/11/23 00:59:01;;;;;;;3.15;1.70;;;20.70;57.00;;;;;;5024348;28;20028;-65
2022/11/23 01:01:32;;;;;;;2.95;1.75;;;20.70;57.00;;;;;;5023428;28;20563;-65
2022/11/23 01:03:59;;;;;;;3.58;2.13;;;20.70;57.00;;;;;;5025898;28;20511;-65
2022/11/23 01:06:27;;;;;;;3.58;2.08;;;20.70;57.00;;;;;;5026934;28;20037;-65
2022/11/23 01:08:58;;;;;;;3.53;2.17;;;20.70;57.00;;;;;;5036333;28;20032;-66
2022/11/23 01:11:26;;;;;;;3.28;1.95;;;20.70;57.00;;;;;;5032090;28;20025;-65
2022/11/23 01:13:52;;;;;;;2.95;2.00;;;20.70;57.00;;;;;;5021897;28;20025;-66
2022/11/23 01:16:23;;;;;;;3.53;1.85;;;20.70;57.00;;;;;;5026446;28;20037;-65
2022/11/23 01:18:56;;;;;;;3.35;1.90;;;20.70;57.00;;;;;;5001396;28;20040;-65
2022/11/23 01:21:24;;;;;;;3.60;2.17;;;20.70;57.00;;;;;;5023182;28;20021;-68
2022/11/23 01:23:49;;;;;;;3.53;2.00;;;20.70;57.00;;;;;;5031674;28;20043;-65
2022/11/23 01:26:15;;;;;;;4.65;2.20;;;20.60;57.00;;;;;;5030935;28;20029;-65
2022/11/23 01:28:41;;;;;;;3.58;2.10;;;20.60;57.00;;;;;;5032902;28;20113;-66
2022/11/23 01:31:13;;;;;;;2.55;1.60;;;20.60;57.00;;;;;;5033646;28;20540;-67
2022/11/23 01:33:38;;;;;;;3.35;2.00;;;20.60;57.00;;;;;;5030578;28;20029;-65
2022/11/23 01:36:18;;;;;;;2.85;1.88;;;20.60;57.00;;;;;;5029276;28;20029;-66
2022/11/23 01:38:45;;;;;;;4.03;2.10;;;20.60;57.00;;;;;;5032898;28;20056;-65
2022/11/23 01:41:14;;;;;;;2.88;1.73;;;20.60;57.00;;;;;;5038378;28;20473;-66
2022/11/23 01:43:40;;;;;;;3.70;2.23;;;20.60;57.00;;;;;;5035139;28;20196;-65
2022/11/23 01:46:06;;;;;;;4.03;2.25;;;20.60;57.10;;;;;;5022221;28;20445;-66
2022/11/23 01:48:46;;;;;;;3.17;1.90;;;20.60;57.10;;;;;;5024237;28;20076;-66
2022/11/23 01:51:15;;;;;;;3.80;2.00;;;20.60;57.10;;;;;;5031153;28;20065;-65
2022/11/23 01:53:42;;;;;;;3.60;1.83;;;20.60;57.10;;;;;;5021862;28;20029;-66
2022/11/23 01:56:12;;;;;;;3.20;1.80;;;20.50;57.10;;;;;;5023180;28;20041;-66
2022/11/23 01:58:42;;;;;;;3.80;1.92;;;20.60;57.10;;;;;;5029645;28;20028;-67
2022/11/23 02:01:08;;;;;;;2.97;1.70;;;20.50;57.10;;;;;;5036614;28;20033;-67
2022/11/23 02:03:36;;;;;;;4.03;2.00;;;20.50;57.10;;;;;;5030037;28;20025;-66
2022/11/23 02:06:06;;;;;;;3.38;1.70;;;20.50;57.10;;;;;;5026369;28;20481;-66
2022/11/23 02:08:31;;;;;;;2.42;1.65;;;20.50;57.10;;;;;;5029951;28;20083;-66
2022/11/23 02:10:58;;;;;;;3.08;1.80;;;20.50;57.10;;;;;;5033784;28;20030;-65
2022/11/23 02:13:26;;;;;;;3.50;1.98;;;20.50;57.10;;;;;;5027086;28;20018;-66
2022/11/23 02:15:53;;;;;;;2.92;1.80;;;20.50;57.60;;;;;;5018761;28;20474;-65
2022/11/23 02:18:22;;;;;;;2.92;1.77;;;20.50;57.10;;;;;;5038631;28;20544;-66
2022/11/23 02:20:48;;;;;;;3.20;1.80;;;20.50;57.10;;;;;;5030053;28;20105;-65
2022/11/23 02:23:37;;;;;;;3.78;1.85;;;20.50;57.10;;;;;;5035780;28;20084;-68
2022/11/23 02:26:12;;;;;;;3.45;1.90;;;20.50;57.10;;;;;;5027934;28;20153;-65
2022/11/23 02:29:08;;;;;;;3.50;1.90;;;20.50;57.20;;;;;;5027816;28;20087;-66
2022/11/23 02:31:35;;;;;;;3.40;1.80;;;20.50;57.20;;;;;;5029452;28;20480;-66
2022/11/23 02:34:00;;;;;;;2.85;1.75;;;20.40;57.10;;;;;;5028762;28;20488;-66
2022/11/23 02:37:01;;;;;;;3.10;1.80;;;20.40;57.10;;;;;;5036828;28;20025;-65
2022/11/23 02:39:36;;;;;;;3.35;2.10;;;20.40;57.20;;;;;;4933830;29;20122;-65
2022/11/23 02:42:03;;;;;;;3.10;2.00;;;20.40;57.10;;;;;;5024414;28;20515;-65
2022/11/23 02:44:49;;;;;;;3.90;2.10;;;20.40;57.20;;;;;;5026539;28;20551;-65
2022/11/23 02:47:14;;;;;;;3.08;1.80;;;20.40;57.20;;;;;;5035224;28;20405;-65
2022/11/23 02:49:41;;;;;;;3.08;1.80;;;20.40;57.20;;;;;;5030352;28;20025;-66
2022/11/23 02:52:08;;;;;;;2.70;1.60;;;20.40;57.20;;;;;;5036173;28;20033;-65
2022/11/23 02:54:34;;;;;;;3.22;2.00;;;20.40;57.20;;;;;;5036976;28;20113;-65
2022/11/23 02:56:59;;;;;;;2.97;1.65;;;20.40;57.20;;;;;;5038616;28;20108;-65
2022/11/23 02:59:25;;;;;;;3.08;1.77;;;20.30;57.20;;;;;;5026248;28;20590;-66
2022/11/23 03:01:51;;;;;;;2.92;1.70;;;20.30;57.20;;;;;;5034298;28;20018;-66
2022/11/23 03:04:16;;;;;;;2.58;1.48;;;20.30;57.20;;;;;;5026401;28;20480;-65
2022/11/23 03:06:42;;;;;;;3.10;1.88;;;20.30;57.20;;;;;;5021070;28;20802;-66
2022/11/23 03:09:08;;;;;;;2.65;1.60;;;20.30;57.20;;;;;;5025847;28;20026;-66
2022/11/23 03:11:33;;;;;;;2.80;1.67;;;20.30;57.20;;;;;;5027963;28;20116;-65
2022/11/23 03:13:59;;;;;;;2.65;1.60;;;20.30;57.20;;;;;;5038759;28;20072;-66
2022/11/23 03:16:25;;;;;;;2.15;1.40;;;20.30;57.20;;;;;;5030661;28;20066;-65
2022/11/23 03:18:50;;;;;;;2.72;1.83;;;20.30;57.20;;;;;;5028024;28;20022;-66
2022/11/23 03:21:16;;;;;;;2.95;1.60;;;20.30;57.20;;;;;;5026051;28;20024;-66
2022/11/23 03:23:42;;;;;;;2.60;1.67;;;20.30;57.20;;;;;;5023376;28;20103;-67
2022/11/23 03:26:08;;;;;;;3.42;1.90;;;20.30;57.20;;;;;;5033831;28;20116;-66
2022/11/23 03:28:33;;;;;;;2.63;1.63;;;20.30;57.20;;;;;;5033597;28;20053;-65
2022/11/23 03:30:59;;;;;;;2.92;1.65;;;20.30;57.20;;;;;;5038318;28;20048;-65
2022/11/23 03:33:24;;;;;;;2.42;1.70;;;20.30;57.20;;;;;;5024459;28;20040;-67
2022/11/23 03:35:50;;;;;;;2.47;1.58;;;20.30;57.20;;;;;;5024660;28;20500;-66
2022/11/23 03:38:16;;;;;;;3.50;1.90;;;20.30;57.20;;;;;;5039566;28;20034;-67
2022/11/23 03:40:44;;;;;;;2.42;1.42;;;20.30;57.20;;;;;;5014674;28;20083;-66
2022/11/23 03:43:10;;;;;;;2.65;1.50;;;20.30;57.20;;;;;;5030972;28;20595;-66
2022/11/23 03:45:36;;;;;;;3.10;1.80;;;20.20;57.10;;;;;;5035680;28;20524;-67
2022/11/23 03:48:02;;;;;;;3.45;1.70;;;20.20;57.20;;;;;;5036555;28;20100;-65
2022/11/23 03:50:28;;;;;;;2.70;1.52;;;20.30;57.20;;;;;;5029386;28;20044;-66
2022/11/23 03:52:54;;;;;;;2.58;1.38;;;20.20;57.20;;;;;;5031751;28;20013;-66
2022/11/23 03:55:20;;;;;;;2.60;1.50;;;20.20;57.20;;;;;;5032359;28;20388;-66
2022/11/23 03:57:49;;;;;;;3.40;1.80;;;20.20;57.20;;;;;;5016273;28;20033;-66
2022/11/23 04:00:15;;;;;;;2.90;1.48;;;20.20;57.20;;;;;;5032742;28;20028;-65
2022/11/23 04:02:41;;;;;;;2.63;1.67;;;20.20;57.20;;;;;;5035647;28;20046;-66
2022/11/23 04:05:07;;;;;;;3.10;1.73;;;20.20;57.20;;;;;;5029546;28;20029;-66
2022/11/23 04:07:33;;;;;;;3.60;1.60;;;20.20;57.20;;;;;;5024735;28;20028;-66
2022/11/23 04:09:59;;;;;;;2.55;1.60;;;20.20;57.20;;;;;;5027626;28;20548;-66
2022/11/23 04:12:25;;;;;;;2.50;1.50;;;20.20;57.20;;;;;;5037861;28;20021;-66
2022/11/23 04:14:51;;;;;;;3.03;1.60;;;20.20;57.20;;;;;;5035266;28;20033;-65
2022/11/23 04:17:17;;;;;;;2.65;1.58;;;20.20;57.30;;;;;;5034915;28;20033;-66
2022/11/23 04:19:42;;;;;;;3.03;1.50;;;20.20;57.30;;;;;;5035552;28;20038;-67
2022/11/23 04:22:08;;;;;;;2.70;1.58;;;20.10;57.20;;;;;;5037901;28;20200;-66
2022/11/23 04:24:34;;;;;;;2.95;1.50;;;20.20;57.30;;;;;;5030870;28;20025;-67
2022/11/23 04:26:59;;;;;;;2.40;1.33;;;20.10;57.20;;;;;;5021849;28;20862;-66
2022/11/23 04:29:25;;;;;;;2.33;1.30;;;20.20;57.30;;;;;;5027784;28;20026;-66
2022/11/23 04:31:50;;;;;;;2.75;1.50;;;20.20;57.30;;;;;;5034513;28;20056;-66
2022/11/23 04:34:16;;;;;;;2.42;1.40;;;20.20;57.30;;;;;;5035180;28;20033;-66
2022/11/23 04:36:42;;;;;;;2.50;1.40;;;20.10;57.20;;;;;;5029244;28;20411;-65
2022/11/23 04:39:09;;;;;;;2.72;1.48;;;20.20;57.20;;;;;;5034292;28;20039;-66
2022/11/23 04:41:34;;;;;;;2.65;1.50;;;20.10;57.20;;;;;;5031415;28;20090;-66
2022/11/23 04:44:00;;;;;;;2.55;1.40;;;20.10;57.20;;;;;;5027788;28;20489;-66
2022/11/23 04:46:25;;;;;;;2.40;1.42;;;20.20;57.20;;;;;;5028062;28;20114;-65
2022/11/23 04:48:51;;;;;;;2.80;1.45;;;20.20;57.20;;;;;;5025674;28;20055;-68
2022/11/23 04:51:16;;;;;;;2.80;1.40;;;20.20;57.20;;;;;;5042247;28;20469;-67
2022/11/23 04:53:42;;;;;;;2.30;1.30;;;20.10;57.20;;;;;;5025573;28;20029;-66
2022/11/23 04:56:08;;;;;;;2.42;1.50;;;20.20;57.20;;;;;;5035211;28;20033;-66
2022/11/23 04:58:35;;;;;;;2.30;1.30;;;20.20;57.20;;;;;;5034905;28;20053;-65
2022/11/23 05:01:01;;;;;;;1.80;1.10;;;20.10;57.20;;;;;;5017900;28;20029;-65
2022/11/23 05:03:27;;;;;;;2.92;1.40;;;20.10;57.20;;;;;;5022111;28;20725;-66
2022/11/23 05:05:53;;;;;;;2.40;1.58;;;20.10;57.30;;;;;;5024271;28;20084;-68
2022/11/23 05:08:18;;;;;;;2.72;1.50;;;20.10;57.30;;;;;;5027944;28;20044;-65
2022/11/23 05:10:44;;;;;;;2.40;1.33;;;20.10;57.40;;;;;;5037232;28;20112;-64
2022/11/23 05:13:10;;;;;;;2.72;1.50;;;20.10;57.40;;;;;;5029008;28;20034;-65
2022/11/23 05:15:35;;;;;;;2.15;1.35;;;20.10;57.40;;;;;;5032135;28;20473;-65
2022/11/23 05:18:03;;;;;;;1.90;1.15;;;20.10;57.40;;;;;;5014151;28;20038;-65
2022/11/23 05:20:29;;;;;;;2.13;1.35;;;20.10;57.40;;;;;;5026135;28;20021;-66
2022/11/23 05:22:55;;;;;;;2.13;1.40;;;20.10;57.40;;;;;;5028426;28;20033;-65
2022/11/23 05:25:20;;;;;;;2.30;1.23;;;20.10;57.40;;;;;;5028907;28;20076;-65
2022/11/23 05:27:46;;;;;;;2.40;1.27;;;20.10;57.40;;;;;;5033109;28;20095;-66
2022/11/23 05:30:12;;;;;;;2.03;1.25;;;20.10;57.40;;;;;;5028236;28;20475;-65
2022/11/23 05:32:38;;;;;;;2.30;1.33;;;20.10;57.40;;;;;;5035658;28;20056;-65
2022/11/23 05:35:05;;;;;;;2.10;1.40;;;20.10;57.40;;;;;;5034911;28;20386;-66
2022/11/23 05:37:30;;;;;;;2.53;1.30;;;20.10;57.40;;;;;;5028222;28;20021;-65
2022/11/23 05:39:56;;;;;;;2.35;1.35;;;20.10;57.50;;;;;;5023473;28;20034;-67
2022/11/23 05:42:21;;;;;;;1.98;1.30;;;20.10;57.50;;;;;;5021544;28;20038;-66
2022/11/23 05:44:47;;;;;;;2.17;1.17;;;20.10;57.50;;;;;;5026452;28;20033;-66
2022/11/23 05:47:13;;;;;;;2.80;1.30;;;20.10;57.50;;;;;;5036265;28;20063;-66
2022/11/23 05:49:38;;;;;;;2.50;1.40;;;20.10;57.50;;;;;;5022650;28;20124;-66
2022/11/23 05:52:05;;;;;;;2.10;1.30;;;20.10;57.50;;;;;;5018810;28;20048;-65
2022/11/23 05:54:30;;;;;;;2.08;1.20;;;20.10;57.50;;;;;;5036196;28;20361;-65
2022/11/23 05:56:56;;;;;;;2.20;1.20;;;20.10;57.60;;;;;;5039076;28;20021;-66
2022/11/23 05:59:21;;;;;;;2.17;1.30;;;20.10;57.60;;;;;;5035359;28;20427;-65
2022/11/23 06:01:47;;;;;;;2.40;1.40;;;20.10;57.60;;;;;;5038223;28;20027;-65
2022/11/23 06:04:13;;;;;;;3.05;1.50;;;20.00;57.60;;;;;;5037939;28;20383;-66
2022/11/23 06:06:38;;;;;;;2.03;1.30;;;20.10;57.60;;;;;;5042816;28;20029;-66
2022/11/23 06:09:04;;;;;;;1.95;1.25;;;20.10;57.70;;;;;;5031223;28;20393;-65
2022/11/23 06:11:31;;;;;;;2.25;1.30;;;20.00;57.60;;;;;;5028859;28;20075;-66
2022/11/23 06:13:57;;;;;;;2.72;1.40;;;20.10;57.70;;;;;;5029833;28;20560;-66
2022/11/23 06:16:22;;;;;;;2.40;1.40;;;20.00;57.60;;;;;;5032936;28;20104;-65
2022/11/23 06:18:48;;;;;;;2.38;1.30;;;20.00;57.70;;;;;;5033211;28;20037;-66
2022/11/23 06:21:14;;;;;;;2.60;1.40;;;20.00;57.70;;;;;;5037115;28;20029;-65
2022/11/23 06:23:39;;;;;;;1.92;1.20;;;20.10;57.80;;;;;;5028441;28;20032;-66
2022/11/23 06:26:05;;;;;;;2.63;1.30;;;20.10;57.80;;;;;;5009992;28;20072;-65
2022/11/23 06:28:30;;;;;;;1.92;1.30;;;20.00;57.80;;;;;;5032146;28;20393;-65
2022/11/23 06:31:01;;;;;;;2.15;1.50;;;20.10;57.80;;;;;;5028828;28;20079;-66
2022/11/23 06:33:26;;;;;;;2.83;1.50;;;20.10;57.90;;;;;;5041689;28;20523;-66
2022/11/23 06:35:54;;;;;;;2.53;1.40;;;20.00;57.80;;;;;;5043241;28;20033;-66
2022/11/23 06:38:20;;;;;;;3.08;1.42;;;20.00;57.90;;;;;;5034911;28;20041;-65
2022/11/23 06:40:46;;;;;;;2.42;1.38;;;20.00;58.40;;;;;;5029844;28;20123;-65
2022/11/23 06:43:11;;;;;;;2.72;1.70;;;20.00;57.90;;;;;;5034313;28;20042;-66
2022/11/23 06:45:37;;;;;;;2.25;1.45;;;20.00;57.90;;;;;;5024218;28;20034;-66
2022/11/23 06:48:03;;;;;;;4.55;1.55;;;20.00;58.10;;;;;;5023015;28;20029;-65
2022/11/23 06:50:29;;;;;;;2.38;1.42;;;20.00;58.70;;;;;;5026393;28;20049;-66
2022/11/23 06:52:56;;;;;;;2.95;1.85;;;20.00;58.70;;;;;;5036262;28;20465;-66
2022/11/23 06:55:22;;;;;;;2.30;1.50;;;20.00;58.10;;;;;;5038007;28;20022;-66
2022/11/23 06:57:48;;;;;;;2.72;1.42;;;20.00;58.10;;;;;;5026570;28;20346;-65
2022/11/23 07:00:14;;;;;;;2.63;1.52;;;20.00;58.10;;;;;;5028132;28;20045;-65
2022/11/23 07:02:39;;;;;;;3.08;1.63;;;20.00;58.10;;;;;;5025622;28;20034;-65
2022/11/23 07:05:05;;;;;;;2.58;1.40;;;20.00;58.10;;;;;;5033259;28;20037;-66
2022/11/23 07:07:31;;;;;;;2.60;1.60;;;20.00;58.60;;;;;;5024783;28;20030;-66
2022/11/23 07:09:57;;;;;;;3.22;1.65;;;20.00;58.10;;;;;;5031127;28;20025;-66
2022/11/23 07:12:23;;;;;;;2.90;1.60;;;20.00;58.10;;;;;;5041672;28;20440;-66
2022/11/23 07:14:48;;;;;;;3.40;1.60;;;20.00;58.10;;;;;;5034759;28;20021;-65
2022/11/23 07:17:14;;;;;;;3.35;1.70;;;20.00;58.10;;;;;;5036603;28;20036;-66
2022/11/23 07:19:39;;;;;;;2.47;1.60;;;20.00;58.10;;;;;;5036453;28;20025;-65
2022/11/23 07:22:05;;;;;;;3.75;1.90;;;20.00;58.10;;;;;;5029873;28;20026;-65
2022/11/23 07:24:30;;;;;;;6.15;2.00;;;20.00;58.20;;;;;;5004780;28;20029;-65
2022/11/23 07:26:56;;;;;;;3.30;1.75;;;19.90;58.10;;;;;;5022061;28;20044;-66
2022/11/23 07:29:22;;;;;;;4.18;2.08;;;20.00;58.20;;;;;;5035227;28;20040;-65
2022/11/23 07:31:47;;;;;;;4.65;2.15;;;19.90;58.10;;;;;;5039070;28;20032;-66
2022/11/23 07:34:13;;;;;;;3.80;2.38;;;19.90;58.10;;;;;;5028133;28;20025;-66
2022/11/23 07:36:39;;;;;;;7.63;2.30;;;20.00;58.20;;;;;;5042475;28;20029;-65
2022/11/23 07:39:04;;;;;;;3.55;1.90;;;20.00;58.20;;;;;;5023896;28;20128;-66
2022/11/23 07:41:30;;;;;;;3.85;1.80;;;19.90;58.20;;;;;;5028661;28;20037;-65
2022/11/23 07:43:56;;;;;;;4.10;2.20;;;19.90;58.20;;;;;;5026798;28;20029;-65
2022/11/23 07:46:21;;;;;;;5.13;2.33;;;19.90;58.20;;;;;;5033132;28;20029;-66
2022/11/23 07:48:47;;;;;;;4.78;2.25;;;19.90;58.20;;;;;;5038184;28;20029;-66
2022/11/23 07:51:12;;;;;;;5.43;2.38;;;19.90;58.20;;;;;;5030737;28;20088;-65
2022/11/23 07:53:38;;;;;;;4.53;2.30;;;19.90;58.20;;;;;;5022016;28;20097;-65
2022/11/23 07:56:04;;;;;;;6.32;2.50;;;19.90;58.20;;;;;;5034537;28;20060;-65
2022/11/23 07:58:31;;;;;;;4.35;2.50;;;19.90;58.30;;;;;;5025630;28;20071;-65
2022/11/23 08:00:57;;;;;;;5.05;2.20;;;19.90;58.20;;;;;;5022502;28;20028;-66
2022/11/23 08:03:23;;;;;;;4.97;2.20;;;19.90;58.30;;;;;;5019918;28;20385;-65
2022/11/23 08:05:48;;;;;;;6.93;2.50;;;19.90;58.30;;;;;;5032260;28;20457;-65
2022/11/23 08:08:14;;;;;;;7.07;2.22;;;19.90;58.30;;;;;;5030505;28;20029;-66
2022/11/23 08:10:40;;;;;;;4.30;2.25;;;19.90;58.30;;;;;;5032641;28;20443;-65
2022/11/23 08:13:06;;;;;;;6.22;2.33;;;19.90;58.30;;;;;;5028451;28;20076;-65
2022/11/23 08:15:31;;;;;;;4.47;2.22;;;19.90;58.30;;;;;;5041406;28;20021;-66
2022/11/23 08:17:59;;;;;;;5.10;2.40;;;19.90;58.30;;;;;;5033916;28;20028;-66
2022/11/23 08:20:27;;;;;;;5.00;2.40;;;19.90;58.30;;;;;;5032994;28;20072;-66
2022/11/23 08:22:54;;;;;;;5.90;2.70;;;19.90;58.30;;;;;;5027474;28;20043;-65
2022/11/23 08:25:24;;;;;;;4.60;2.55;;;19.90;58.30;;;;;;5021787;28;20032;-66
2022/11/23 08:28:01;;;;;;;4.80;2.35;;;19.90;58.40;;;;;;5029196;28;20466;-65
2022/11/23 08:30:27;;;;;;;5.05;2.42;;;19.90;58.30;;;;;;5032936;28;20019;-66
2022/11/23 08:32:53;;;;;;;4.93;2.35;;;19.90;58.40;;;;;;5022711;28;20109;-65
2022/11/23 08:35:19;;;;;;;4.97;2.55;;;19.90;58.40;;;;;;5022322;28;20116;-65
2022/11/23 08:37:45;;;;;;;4.03;2.30;;;19.90;58.40;;;;;;5033396;28;20033;-65
2022/11/23 08:40:11;;;;;;;5.82;2.95;;;19.90;58.40;;;;;;5033294;28;20420;-65
2022/11/23 08:42:37;;;;;;;4.60;2.75;;;19.90;58.40;;;;;;5023533;28;20037;-66
2022/11/23 08:45:04;;;;;;;6.15;2.72;;;19.90;58.40;;;;;;5022228;28;20048;-66
2022/11/23 08:47:30;;;;;;;6.00;2.60;;;19.80;58.40;;;;;;5023726;28;20052;-65
2022/11/23 08:49:56;;;;;;;4.53;2.50;;;19.80;58.40;;;;;;5018064;28;20450;-66
2022/11/23 08:52:22;;;;;;;5.97;2.65;;;19.80;58.40;;;;;;5025375;28;20031;-65
2022/11/23 08:54:47;;;;;;;5.05;2.45;;;19.90;58.40;;;;;;5035948;28;20395;-65
2022/11/23 08:57:13;;;;;;;6.05;2.58;;;19.90;58.40;;;;;;5033743;28;20025;-66
2022/11/23 08:59:38;;;;;;;4.97;2.60;;;19.80;58.40;;;;;;5026669;28;20022;-66
2022/11/23 09:02:04;;;;;;;4.85;2.38;;;19.80;58.40;;;;;;5033151;28;20033;-65
2022/11/23 09:04:30;;;;;;;5.90;2.58;;;19.80;58.50;;;;;;5032829;28;20479;-66
2022/11/23 09:06:56;;;;;;;4.97;2.55;;;19.80;58.40;;;;;;5035426;28;20163;-65
2022/11/23 09:09:21;;;;;;;5.25;2.65;;;19.80;58.40;;;;;;5029356;28;20074;-66
2022/11/23 09:11:47;;;;;;;4.82;2.38;;;19.80;58.50;;;;;;5029915;28;20457;-66
2022/11/23 09:14:13;;;;;;;4.30;2.47;;;19.80;58.40;;;;;;5036649;28;20017;-66
2022/11/23 09:16:39;;;;;;;4.68;2.40;;;19.80;58.40;;;;;;5035740;28;20361;-66
2022/11/23 09:19:06;;;;;;;4.95;2.60;;;19.80;58.50;;;;;;5025877;28;20027;-65
2022/11/23 09:21:34;;;;;;;6.35;2.65;;;19.80;58.40;;;;;;5028665;28;20140;-66
2022/11/23 09:24:00;;;;;;;5.18;2.45;;;19.80;58.50;;;;;;5033482;28;20032;-65
2022/11/23 09:26:26;;;;;;;4.20;2.33;;;19.80;59.00;;;;;;5028062;28;20030;-66
2022/11/23 09:28:52;;;;;;;4.38;2.20;;;19.80;58.50;;;;;;5019641;28;20392;-65
2022/11/23 09:31:18;;;;;;;4.03;2.40;;;19.80;58.50;;;;;;5031127;28;20056;-65
2022/11/23 09:33:43;;;;;;;4.57;2.60;;;19.80;58.50;;;;;;5032533;28;20029;-66
2022/11/23 09:36:10;;;;;;;5.35;2.65;;;19.80;58.50;;;;;;5020725;28;20417;-65
2022/11/23 09:38:35;;;;;;;4.15;2.55;;;19.80;58.50;;;;;;5036523;28;20034;-65
2022/11/23 09:41:21;;;;;;;5.55;2.70;;;19.80;58.50;;;;;;5026147;28;20025;-65
2022/11/23 09:43:49;;;;;;;5.82;2.80;;;19.80;58.60;;;;;;5043512;28;20046;-65
2022/11/23 09:46:36;;;;;;;5.60;2.70;;;19.80;58.60;;;;;;5031603;28;20030;-66
2022/11/23 09:49:17;;;;;;;6.88;2.47;;;19.80;58.50;;;;;;5034371;28;20037;-65
2022/11/23 09:51:43;;;;;;;4.20;2.60;;;19.80;58.50;;;;;;5042761;28;20367;-66
2022/11/23 09:54:18;;;;;;;3.78;2.58;;;19.80;58.50;;;;;;5033084;28;20199;-65
2022/11/23 09:56:45;;;;;;;6.20;2.40;;;19.80;58.60;;;;;;5041860;28;20034;-65
2022/11/23 09:59:22;;;;;;;4.65;2.70;;;19.80;58.60;;;;;;5031071;28;20395;-66
2022/11/23 10:01:48;;;;;;;4.68;2.55;;;19.80;58.60;;;;;;5024680;28;20579;-65
2022/11/23 10:04:19;;;;;;;4.00;2.35;;;19.80;58.60;;;;;;5031273;28;20030;-66
2022/11/23 10:06:52;;;;;;;5.15;2.65;;;19.80;58.60;;;;;;5032280;28;20444;-66
2022/11/23 10:09:39;;;;;;;4.40;2.10;;;19.80;58.60;;;;;;5036279;28;20025;-66
2022/11/23 10:12:21;;;;;;;4.88;2.65;;;19.80;58.60;;;;;;5027335;28;20029;-66
2022/11/23 10:15:01;;;;;;;4.63;2.60;;;19.80;58.70;;;;;;5044608;28;20075;-65
2022/11/23 10:17:48;;;;;;;4.97;2.38;;;19.80;58.70;;;;;;5033905;28;20480;-66
2022/11/23 10:20:19;;;;;;;3.67;2.10;;;19.80;58.60;;;;;;5034864;28;20083;-65
2022/11/23 10:22:58;;;;;;;5.70;2.50;;;19.70;58.60;;;;;;5032859;28;20025;-65
2022/11/23 10:25:26;;;;;;;5.35;2.30;;;19.70;58.60;;;;;;5035564;28;20435;-65
2022/11/23 10:27:58;;;;;;;5.18;2.35;;;19.70;59.10;;;;;;5023872;28;20503;-65
2022/11/23 10:30:24;;;;;;;3.65;2.15;;;19.80;58.70;;;;;;5038913;28;20492;-65
2022/11/23 10:32:59;;;;;;;3.70;2.05;;;19.80;58.70;;;;;;5030514;28;20033;-66
2022/11/23 10:35:29;;;;;;;3.65;2.22;;;19.80;58.60;;;;;;5031483;28;20028;-66
2022/11/23 10:38:13;;;;;;;4.75;2.47;;;19.80;58.70;;;;;;5028362;28;20518;-65
2022/11/23 10:40:47;;;;;;;3.80;2.20;;;19.70;59.20;;;;;;5031989;28;20374;-65
2022/11/23 10:43:20;;;;;;;4.80;2.53;;;19.80;58.60;;;;;;5023994;28;20385;-66
2022/11/23 10:45:47;;;;;;;4.97;2.50;;;19.70;58.60;;;;;;5029912;28;20029;-65
2022/11/23 10:48:31;;;;;;;5.15;2.50;;;19.70;58.60;;;;;;5041089;28;20013;-66
2022/11/23 10:51:31;;;;;;;3.75;2.20;;;19.70;58.60;;;;;;5035650;28;20067;-66
2022/11/23 10:54:02;;;;;;;5.03;2.60;;;19.70;58.70;;;;;;5036283;28;20018;-65
2022/11/23 10:56:29;;;;;;;4.57;2.17;;;19.70;58.70;;;;;;5037386;28;20033;-66
2022/11/23 10:58:54;;;;;;;4.28;2.38;;;19.70;58.60;;;;;;5040570;28;20044;-65
2022/11/23 11:01:23;;;;;;;4.70;2.47;;;19.70;58.60;;;;;;5031686;28;20876;-65
2022/11/23 11:03:51;;;;;;;3.78;2.38;;;19.70;58.70;;;;;;5024717;28;20026;-65
2022/11/23 11:06:26;;;;;;;4.25;2.38;;;19.70;58.70;;;;;;5025854;28;20129;-66
2022/11/23 11:09:02;;;;;;;3.63;2.15;;;19.70;58.70;;;;;;5034744;28;20075;-66
2022/11/23 11:11:31;;;;;;;4.75;2.22;;;19.70;58.70;;;;;;5034168;28;20017;-66
2022/11/23 11:14:16;;;;;;;5.40;2.50;;;19.70;58.70;;;;;;5031726;28;20141;-66
2022/11/23 11:16:54;;;;;;;4.68;2.35;;;19.70;58.70;;;;;;5032317;28;20113;-66
2022/11/23 11:19:32;;;;;;;3.58;2.20;;;19.70;58.70;;;;;;5029002;28;20584;-65
2022/11/23 11:22:01;;;;;;;3.40;2.03;;;19.70;58.80;;;;;;5038086;28;20033;-66
2022/11/23 11:24:31;;;;;;;4.22;2.40;;;19.70;58.80;;;;;;5028026;28;20664;-65
2022/11/23 11:26:59;;;;;;;4.15;2.40;;;19.70;58.80;;;;;;5037221;28;20468;-66
2022/11/23 11:29:38;;;;;;;5.32;2.28;;;19.70;58.80;;;;;;5042287;28;20026;-65
2022/11/23 11:32:17;;;;;;;3.67;2.22;;;19.70;58.80;;;;;;5036682;28;20436;-66
2022/11/23 11:34:49;;;;;;;5.05;2.30;;;19.70;58.80;;;;;;5042506;28;20492;-66
2022/11/23 11:37:37;;;;;;;4.53;2.47;;;19.70;58.80;;;;;;5034848;28;20489;-66
2022/11/23 11:40:22;;;;;;;3.33;2.05;;;19.70;58.80;;;;;;5040992;28;20040;-66
2022/11/23 11:43:09;;;;;;;4.22;2.10;;;19.70;58.80;;;;;;5032200;28;20500;-66
2022/11/23 11:45:50;;;;;;;4.10;2.33;;;19.70;58.80;;;;;;5024894;28;20036;-66
2022/11/23 11:48:23;;;;;;;4.10;2.25;;;19.70;58.80;;;;;;5039741;28;20029;-66
2022/11/23 11:51:12;;;;;;;5.03;2.53;;;19.70;58.80;;;;;;5026288;28;20025;-65
2022/11/23 11:54:04;;;;;;;3.63;2.35;;;19.70;58.80;;;;;;5018560;28;20117;-66
2022/11/23 11:56:45;;;;;;;4.22;2.17;;;19.70;58.80;;;;;;5031752;28;20489;-66
2022/11/23 11:59:13;;;;;;;4.65;2.10;;;19.70;58.80;;;;;;5027475;28;20034;-65
2022/11/23 12:01:50;;;;;;;4.32;2.15;;;19.70;58.80;;;;;;5019332;28;20433;-65
2022/11/23 12:04:34;;;;;;;3.60;1.92;;;19.80;58.90;;;;;;5036198;28;20447;-65
2022/11/23 12:07:14;;;;;;;3.50;2.03;;;19.80;58.80;;;;;;5037677;28;20048;-66
2022/11/23 12:09:44;;;;;;;3.10;1.83;;;19.70;58.80;;;;;;5026508;28;20076;-65
2022/11/23 12:12:18;;;;;;;3.53;2.28;;;19.70;58.70;;;;;;5038209;28;20425;-65
2022/11/23 12:14:45;;;;;;;3.20;1.90;;;19.80;58.80;;;;;;5034727;28;20029;-65
2022/11/23 12:17:32;;;;;;;4.15;2.08;;;19.80;58.80;;;;;;5032643;28;20033;-65
2022/11/23 12:20:18;;;;;;;3.42;1.90;;;19.80;58.70;;;;;;5025884;28;20389;-65
2022/11/23 12:23:31;;;;;;;3.00;1.88;;;19.80;58.80;;;;;;5149905;27;20404;-64
2022/11/23 12:26:39;;;;;;;3.45;2.08;;;19.80;58.80;;;;;;5119378;27;20047;-64
2022/11/23 12:29:20;;;;;;;3.65;2.17;;;19.80;58.70;;;;;;5134727;27;20069;-63
2022/11/23 12:31:47;;;;;;;3.70;2.13;;;19.80;58.70;;;;;;5136114;27;20164;-64
2022/11/23 12:34:46;;;;;;;3.97;2.03;;;19.80;58.70;;;;;;5139446;27;20503;-64
2022/11/23 12:37:30;;;;;;;3.42;2.03;;;19.80;58.70;;;;;;5137640;27;20468;-63
2022/11/23 12:40:05;;;;;;;3.45;1.90;;;19.80;58.70;;;;;;5138517;27;20538;-64
2022/11/23 12:42:53;;;;;;;3.45;1.75;;;19.80;58.80;;;;;;5139807;27;20477;-64
2022/11/23 12:45:37;;;;;;;3.75;2.00;;;19.80;58.80;;;;;;5139453;27;20030;-64
2022/11/23 12:48:09;;;;;;;3.22;1.70;;;19.80;58.80;;;;;;5140235;27;20031;-64
2022/11/23 12:50:59;;;;;;;3.83;2.10;;;19.80;58.70;;;;;;5134485;27;20124;-63
2022/11/23 12:53:58;;;;;;;4.72;2.00;;;19.80;58.70;;;;;;5133548;27;20023;-65
2022/11/23 12:56:30;;;;;;;;;;;19.80;58.70;;;;;;5135846;27;20027;-64
2022/11/23 12:58:57;;;;;;;4.70;2.10;;;19.80;58.70;;;;;;5136526;27;19983;-64